sensor_id;sensor_type;location;lat;lon;timestamp;P1;durP1;ratioP1;P2;durP2;ratioP2
14939;SDS011;11825;51.898;8.202;2023-04-25T00:03:30;10.83;;;5.00;;
14939;SDS011;11825;51.898;8.202;2023-04-25T00:08:33;11.93;;;5.87;;
14939;SDS011;11825;51.898;8.202;2023-04-25T00:13:35;7.33;;;5.27;;
14939;SDS011;11825;51.898;8.202;2023-04-25T00:18:37;11.20;;;4.97;;
14939;SDS011;11825;51.898;8.202;2023-04-25T00:23:39;14.40;;;5.93;;
14939;SDS011;11825;51.898;8.202;2023-04-25T00:28:41;10.67;;;5.97;;
14939;SDS011;11825;51.898;8.202;2023-04-25T00:33:43;14.63;;;6.17;;
14939;SDS011;11825;51.898;8.202;2023-04-25T00:38:46;12.53;;;5.87;;
14939;SDS011;11825;51.898;8.202;2023-04-25T00:43:48;11.37;;;5.73;;
14939;SDS011;11825;51.898;8.202;2023-04-25T00:48:51;12.87;;;6.33;;
14939;SDS011;11825;51.898;8.202;2023-04-25T00:53:53;10.67;;;4.97;;
14939;SDS011;11825;51.898;8.202;2023-04-25T00:58:55;12.63;;;5.77;;
14939;SDS011;11825;51.898;8.202;2023-04-25T01:03:58;12.37;;;5.47;;
14939;SDS011;11825;51.898;8.202;2023-04-25T01:09:01;9.87;;;6.23;;
14939;SDS011;11825;51.898;8.202;2023-04-25T01:14:04;7.67;;;5.43;;
14939;SDS011;11825;51.898;8.202;2023-04-25T01:19:09;11.10;;;5.83;;
14939;SDS011;11825;51.898;8.202;2023-04-25T01:24:14;16.43;;;6.23;;
14939;SDS011;11825;51.898;8.202;2023-04-25T01:29:19;11.53;;;6.47;;
14939;SDS011;11825;51.898;8.202;2023-04-25T01:34:21;14.33;;;7.13;;
14939;SDS011;11825;51.898;8.202;2023-04-25T01:39:23;12.53;;;6.53;;
14939;SDS011;11825;51.898;8.202;2023-04-25T01:44:25;15.30;;;6.77;;
14939;SDS011;11825;51.898;8.202;2023-04-25T01:49:27;11.87;;;6.43;;
14939;SDS011;11825;51.898;8.202;2023-04-25T01:54:28;11.87;;;6.60;;
14939;SDS011;11825;51.898;8.202;2023-04-25T01:59:31;15.87;;;8.03;;
14939;SDS011;11825;51.898;8.202;2023-04-25T02:04:32;14.87;;;7.27;;
14939;SDS011;11825;51.898;8.202;2023-04-25T02:09:34;13.60;;;6.43;;
14939;SDS011;11825;51.898;8.202;2023-04-25T02:14:36;11.03;;;6.53;;
14939;SDS011;11825;51.898;8.202;2023-04-25T02:19:38;14.80;;;6.73;;
14939;SDS011;11825;51.898;8.202;2023-04-25T02:24:40;15.10;;;7.63;;
14939;SDS011;11825;51.898;8.202;2023-04-25T02:29:42;12.10;;;7.67;;
14939;SDS011;11825;51.898;8.202;2023-04-25T02:34:44;11.17;;;7.80;;
14939;SDS011;11825;51.898;8.202;2023-04-25T02:39:46;10.80;;;7.17;;
14939;SDS011;11825;51.898;8.202;2023-04-25T02:44:48;10.60;;;6.07;;
14939;SDS011;11825;51.898;8.202;2023-04-25T02:49:50;12.27;;;6.07;;
14939;SDS011;11825;51.898;8.202;2023-04-25T02:54:52;8.17;;;5.57;;
14939;SDS011;11825;51.898;8.202;2023-04-25T02:59:54;10.47;;;5.37;;
14939;SDS011;11825;51.898;8.202;2023-04-25T03:04:56;8.70;;;6.10;;
14939;SDS011;11825;51.898;8.202;2023-04-25T03:09:57;11.57;;;6.20;;
14939;SDS011;11825;51.898;8.202;2023-04-25T03:14:59;8.90;;;5.40;;
14939;SDS011;11825;51.898;8.202;2023-04-25T03:20:02;16.83;;;4.90;;
14939;SDS011;11825;51.898;8.202;2023-04-25T03:25:05;8.53;;;4.30;;
14939;SDS011;11825;51.898;8.202;2023-04-25T03:30:08;6.53;;;4.73;;
14939;SDS011;11825;51.898;8.202;2023-04-25T03:35:10;9.70;;;3.90;;
14939;SDS011;11825;51.898;8.202;2023-04-25T03:40:12;10.83;;;4.90;;
14939;SDS011;11825;51.898;8.202;2023-04-25T03:45:14;7.37;;;4.40;;
14939;SDS011;11825;51.898;8.202;2023-04-25T03:50:16;10.17;;;4.30;;
14939;SDS011;11825;51.898;8.202;2023-04-25T03:55:18;15.47;;;6.17;;
14939;SDS011;11825;51.898;8.202;2023-04-25T04:00:20;10.23;;;4.17;;
14939;SDS011;11825;51.898;8.202;2023-04-25T04:05:22;14.33;;;4.97;;
14939;SDS011;11825;51.898;8.202;2023-04-25T04:10:24;12.87;;;5.80;;
14939;SDS011;11825;51.898;8.202;2023-04-25T04:15:27;7.30;;;3.93;;
14939;SDS011;11825;51.898;8.202;2023-04-25T04:20:29;8.10;;;3.80;;
14939;SDS011;11825;51.898;8.202;2023-04-25T04:25:34;11.77;;;4.93;;
14939;SDS011;11825;51.898;8.202;2023-04-25T04:30:36;10.90;;;5.00;;
14939;SDS011;11825;51.898;8.202;2023-04-25T04:35:38;16.43;;;6.20;;
14939;SDS011;11825;51.898;8.202;2023-04-25T04:40:41;12.10;;;5.43;;
14939;SDS011;11825;51.898;8.202;2023-04-25T04:45:44;18.60;;;5.67;;
14939;SDS011;11825;51.898;8.202;2023-04-25T04:50:46;12.33;;;4.60;;
14939;SDS011;11825;51.898;8.202;2023-04-25T04:55:48;13.87;;;4.40;;
14939;SDS011;11825;51.898;8.202;2023-04-25T05:00:52;15.33;;;5.37;;
14939;SDS011;11825;51.898;8.202;2023-04-25T05:05:54;14.20;;;5.13;;
14939;SDS011;11825;51.898;8.202;2023-04-25T05:10:56;10.30;;;5.67;;
14939;SDS011;11825;51.898;8.202;2023-04-25T05:15:58;21.07;;;6.10;;
14939;SDS011;11825;51.898;8.202;2023-04-25T05:21:00;13.33;;;4.23;;
14939;SDS011;11825;51.898;8.202;2023-04-25T05:26:02;15.50;;;6.03;;
14939;SDS011;11825;51.898;8.202;2023-04-25T05:31:04;18.27;;;7.03;;
14939;SDS011;11825;51.898;8.202;2023-04-25T05:36:06;15.47;;;5.77;;
14939;SDS011;11825;51.898;8.202;2023-04-25T05:41:09;14.87;;;5.50;;
14939;SDS011;11825;51.898;8.202;2023-04-25T05:46:11;12.03;;;5.33;;
14939;SDS011;11825;51.898;8.202;2023-04-25T05:51:13;15.10;;;5.10;;
14939;SDS011;11825;51.898;8.202;2023-04-25T05:56:15;11.13;;;5.10;;
14939;SDS011;11825;51.898;8.202;2023-04-25T06:01:17;18.33;;;5.53;;
14939;SDS011;11825;51.898;8.202;2023-04-25T06:06:19;14.73;;;4.50;;
14939;SDS011;11825;51.898;8.202;2023-04-25T06:11:21;17.37;;;5.50;;
14939;SDS011;11825;51.898;8.202;2023-04-25T06:16:23;16.37;;;5.10;;
14939;SDS011;11825;51.898;8.202;2023-04-25T06:21:27;17.53;;;4.83;;
14939;SDS011;11825;51.898;8.202;2023-04-25T06:26:29;10.53;;;4.90;;
14939;SDS011;11825;51.898;8.202;2023-04-25T06:31:33;10.23;;;4.00;;
14939;SDS011;11825;51.898;8.202;2023-04-25T06:36:35;17.40;;;6.30;;
14939;SDS011;11825;51.898;8.202;2023-04-25T06:41:37;9.00;;;4.13;;
14939;SDS011;11825;51.898;8.202;2023-04-25T06:46:39;13.63;;;4.23;;
14939;SDS011;11825;51.898;8.202;2023-04-25T06:51:41;9.60;;;3.43;;
14939;SDS011;11825;51.898;8.202;2023-04-25T06:56:42;10.30;;;4.10;;
14939;SDS011;11825;51.898;8.202;2023-04-25T07:01:44;13.17;;;4.33;;
14939;SDS011;11825;51.898;8.202;2023-04-25T07:06:46;9.37;;;3.23;;
14939;SDS011;11825;51.898;8.202;2023-04-25T07:11:49;14.07;;;4.57;;
14939;SDS011;11825;51.898;8.202;2023-04-25T07:16:51;11.90;;;3.47;;
14939;SDS011;11825;51.898;8.202;2023-04-25T07:21:53;17.50;;;5.43;;
14939;SDS011;11825;51.898;8.202;2023-04-25T07:26:55;12.03;;;3.90;;
14939;SDS011;11825;51.898;8.202;2023-04-25T07:31:57;10.37;;;3.23;;
14939;SDS011;11825;51.898;8.202;2023-04-25T07:36:59;8.40;;;3.37;;
14939;SDS011;11825;51.898;8.202;2023-04-25T07:42:01;6.80;;;2.83;;
14939;SDS011;11825;51.898;8.202;2023-04-25T07:47:03;12.10;;;3.97;;
14939;SDS011;11825;51.898;8.202;2023-04-25T07:52:08;7.20;;;3.47;;
14939;SDS011;11825;51.898;8.202;2023-04-25T07:57:10;8.77;;;3.00;;
14939;SDS011;11825;51.898;8.202;2023-04-25T08:02:15;11.13;;;3.93;;
14939;SDS011;11825;51.898;8.202;2023-04-25T08:07:17;7.30;;;1.77;;
14939;SDS011;11825;51.898;8.202;2023-04-25T08:12:19;8.97;;;2.63;;
14939;SDS011;11825;51.898;8.202;2023-04-25T08:17:23;10.27;;;2.73;;
14939;SDS011;11825;51.898;8.202;2023-04-25T08:22:25;14.27;;;2.83;;
14939;SDS011;11825;51.898;8.202;2023-04-25T08:27:27;6.73;;;4.20;;
14939;SDS011;11825;51.898;8.202;2023-04-25T08:32:29;12.63;;;3.13;;
14939;SDS011;11825;51.898;8.202;2023-04-25T08:37:31;6.83;;;2.83;;
14939;SDS011;11825;51.898;8.202;2023-04-25T08:42:33;12.53;;;2.43;;
14939;SDS011;11825;51.898;8.202;2023-04-25T08:47:37;4.53;;;2.00;;
14939;SDS011;11825;51.898;8.202;2023-04-25T08:52:43;5.47;;;2.30;;
14939;SDS011;11825;51.898;8.202;2023-04-25T08:57:48;12.80;;;2.53;;
14939;SDS011;11825;51.898;8.202;2023-04-25T09:02:51;6.60;;;3.60;;
14939;SDS011;11825;51.898;8.202;2023-04-25T09:07:54;6.63;;;2.60;;
14939;SDS011;11825;51.898;8.202;2023-04-25T09:13:08;5.03;;;2.00;;
14939;SDS011;11825;51.898;8.202;2023-04-25T09:18:11;4.93;;;1.87;;
14939;SDS011;11825;51.898;8.202;2023-04-25T09:23:14;7.17;;;1.97;;
14939;SDS011;11825;51.898;8.202;2023-04-25T09:28:24;6.33;;;2.87;;
14939;SDS011;11825;51.898;8.202;2023-04-25T09:33:32;6.13;;;1.90;;
14939;SDS011;11825;51.898;8.202;2023-04-25T09:38:41;6.83;;;2.23;;
14939;SDS011;11825;51.898;8.202;2023-04-25T09:43:45;7.20;;;2.60;;
14939;SDS011;11825;51.898;8.202;2023-04-25T09:48:50;4.83;;;2.37;;
14939;SDS011;11825;51.898;8.202;2023-04-25T09:53:55;6.23;;;2.40;;
14939;SDS011;11825;51.898;8.202;2023-04-25T09:58:57;3.90;;;1.80;;
14939;SDS011;11825;51.898;8.202;2023-04-25T10:03:59;4.40;;;1.67;;
14939;SDS011;11825;51.898;8.202;2023-04-25T10:09:03;2.90;;;1.90;;
14939;SDS011;11825;51.898;8.202;2023-04-25T10:14:06;6.33;;;2.10;;
14939;SDS011;11825;51.898;8.202;2023-04-25T10:19:09;7.60;;;2.43;;
14939;SDS011;11825;51.898;8.202;2023-04-25T10:24:11;3.90;;;1.97;;
14939;SDS011;11825;51.898;8.202;2023-04-25T10:29:21;4.03;;;1.93;;
14939;SDS011;11825;51.898;8.202;2023-04-25T10:39:45;6.00;;;2.23;;
14939;SDS011;11825;51.898;8.202;2023-04-25T10:45:00;4.30;;;2.57;;
14939;SDS011;11825;51.898;8.202;2023-04-25T10:50:05;4.03;;;2.00;;
14939;SDS011;11825;51.898;8.202;2023-04-25T10:55:10;3.73;;;1.90;;
14939;SDS011;11825;51.898;8.202;2023-04-25T11:00:13;2.67;;;1.77;;
14939;SDS011;11825;51.898;8.202;2023-04-25T11:05:20;6.23;;;1.97;;
14939;SDS011;11825;51.898;8.202;2023-04-25T11:10:36;1.57;;;1.13;;
14939;SDS011;11825;51.898;8.202;2023-04-25T11:15:38;2.13;;;1.30;;
14939;SDS011;11825;51.898;8.202;2023-04-25T11:20:41;5.60;;;1.93;;
14939;SDS011;11825;51.898;8.202;2023-04-25T11:25:45;4.47;;;1.73;;
14939;SDS011;11825;51.898;8.202;2023-04-25T11:30:53;5.00;;;2.10;;
14939;SDS011;11825;51.898;8.202;2023-04-25T11:35:59;5.67;;;2.53;;
14939;SDS011;11825;51.898;8.202;2023-04-25T11:41:04;4.87;;;1.90;;
14939;SDS011;11825;51.898;8.202;2023-04-25T11:46:06;4.70;;;1.93;;
14939;SDS011;11825;51.898;8.202;2023-04-25T11:51:09;5.07;;;1.70;;
14939;SDS011;11825;51.898;8.202;2023-04-25T11:56:11;5.60;;;1.53;;
14939;SDS011;11825;51.898;8.202;2023-04-25T12:01:24;4.30;;;1.87;;
14939;SDS011;11825;51.898;8.202;2023-04-25T12:06:45;3.87;;;1.93;;
14939;SDS011;11825;51.898;8.202;2023-04-25T12:12:05;3.53;;;1.93;;
14939;SDS011;11825;51.898;8.202;2023-04-25T12:17:10;4.83;;;1.50;;
14939;SDS011;11825;51.898;8.202;2023-04-25T12:22:21;3.90;;;1.90;;
14939;SDS011;11825;51.898;8.202;2023-04-25T12:27:25;4.00;;;1.77;;
14939;SDS011;11825;51.898;8.202;2023-04-25T12:32:28;3.53;;;2.37;;
14939;SDS011;11825;51.898;8.202;2023-04-25T12:37:33;3.63;;;1.47;;
14939;SDS011;11825;51.898;8.202;2023-04-25T12:42:35;3.13;;;1.37;;
14939;SDS011;11825;51.898;8.202;2023-04-25T12:47:37;1.37;;;0.93;;
14939;SDS011;11825;51.898;8.202;2023-04-25T12:52:39;5.80;;;1.93;;
14939;SDS011;11825;51.898;8.202;2023-04-25T12:57:41;4.73;;;2.07;;
14939;SDS011;11825;51.898;8.202;2023-04-25T13:02:44;2.17;;;1.30;;
14939;SDS011;11825;51.898;8.202;2023-04-25T13:07:46;3.37;;;1.50;;
14939;SDS011;11825;51.898;8.202;2023-04-25T13:12:48;3.13;;;1.10;;
14939;SDS011;11825;51.898;8.202;2023-04-25T13:17:51;6.43;;;2.10;;
14939;SDS011;11825;51.898;8.202;2023-04-25T13:22:59;1.50;;;1.40;;
14939;SDS011;11825;51.898;8.202;2023-04-25T13:28:05;1.23;;;0.73;;
14939;SDS011;11825;51.898;8.202;2023-04-25T13:33:07;2.80;;;1.43;;
14939;SDS011;11825;51.898;8.202;2023-04-25T13:38:09;3.97;;;1.10;;
14939;SDS011;11825;51.898;8.202;2023-04-25T13:43:11;2.77;;;1.20;;
14939;SDS011;11825;51.898;8.202;2023-04-25T13:48:13;2.63;;;1.33;;
14939;SDS011;11825;51.898;8.202;2023-04-25T13:53:16;3.50;;;1.60;;
14939;SDS011;11825;51.898;8.202;2023-04-25T13:58:20;3.67;;;1.77;;
14939;SDS011;11825;51.898;8.202;2023-04-25T14:03:27;6.07;;;1.67;;
14939;SDS011;11825;51.898;8.202;2023-04-25T14:08:29;6.43;;;1.93;;
14939;SDS011;11825;51.898;8.202;2023-04-25T14:13:31;7.00;;;1.97;;
14939;SDS011;11825;51.898;8.202;2023-04-25T14:18:33;6.97;;;2.27;;
14939;SDS011;11825;51.898;8.202;2023-04-25T14:23:35;4.10;;;2.27;;
14939;SDS011;11825;51.898;8.202;2023-04-25T14:28:38;4.43;;;2.20;;
14939;SDS011;11825;51.898;8.202;2023-04-25T14:33:43;3.03;;;1.80;;
14939;SDS011;11825;51.898;8.202;2023-04-25T14:38:49;4.23;;;1.87;;
14939;SDS011;11825;51.898;8.202;2023-04-25T14:43:54;3.80;;;2.07;;
14939;SDS011;11825;51.898;8.202;2023-04-25T14:48:58;4.23;;;2.00;;
14939;SDS011;11825;51.898;8.202;2023-04-25T14:54:00;3.17;;;1.80;;
14939;SDS011;11825;51.898;8.202;2023-04-25T14:59:02;3.50;;;1.70;;
14939;SDS011;11825;51.898;8.202;2023-04-25T15:04:04;4.10;;;1.57;;
14939;SDS011;11825;51.898;8.202;2023-04-25T15:09:06;1.50;;;1.07;;
14939;SDS011;11825;51.898;8.202;2023-04-25T15:14:11;5.40;;;1.50;;
14939;SDS011;11825;51.898;8.202;2023-04-25T15:19:13;2.83;;;1.83;;
14939;SDS011;11825;51.898;8.202;2023-04-25T15:24:16;4.57;;;2.20;;
14939;SDS011;11825;51.898;8.202;2023-04-25T15:29:18;2.83;;;1.80;;
14939;SDS011;11825;51.898;8.202;2023-04-25T15:34:20;1.80;;;1.40;;
14939;SDS011;11825;51.898;8.202;2023-04-25T15:39:25;7.13;;;1.73;;
14939;SDS011;11825;51.898;8.202;2023-04-25T15:44:27;1.83;;;1.13;;
14939;SDS011;11825;51.898;8.202;2023-04-25T15:49:29;4.20;;;2.03;;
14939;SDS011;11825;51.898;8.202;2023-04-25T15:54:31;2.07;;;1.73;;
14939;SDS011;11825;51.898;8.202;2023-04-25T15:59:36;2.80;;;1.90;;
14939;SDS011;11825;51.898;8.202;2023-04-25T16:04:38;3.53;;;1.97;;
14939;SDS011;11825;51.898;8.202;2023-04-25T16:09:40;2.47;;;1.63;;
14939;SDS011;11825;51.898;8.202;2023-04-25T16:14:42;2.73;;;1.53;;
14939;SDS011;11825;51.898;8.202;2023-04-25T16:19:48;2.57;;;1.70;;
14939;SDS011;11825;51.898;8.202;2023-04-25T16:24:51;6.30;;;2.20;;
14939;SDS011;11825;51.898;8.202;2023-04-25T16:29:56;3.00;;;1.83;;
14939;SDS011;11825;51.898;8.202;2023-04-25T16:34:58;7.37;;;2.57;;
14939;SDS011;11825;51.898;8.202;2023-04-25T16:40:00;4.57;;;1.87;;
14939;SDS011;11825;51.898;8.202;2023-04-25T16:45:05;5.67;;;2.10;;
14939;SDS011;11825;51.898;8.202;2023-04-25T16:50:14;5.97;;;2.00;;
14939;SDS011;11825;51.898;8.202;2023-04-25T16:55:19;8.97;;;5.23;;
14939;SDS011;11825;51.898;8.202;2023-04-25T17:00:21;8.43;;;4.37;;
14939;SDS011;11825;51.898;8.202;2023-04-25T17:05:23;5.87;;;3.37;;
14939;SDS011;11825;51.898;8.202;2023-04-25T17:10:26;3.57;;;1.57;;
14939;SDS011;11825;51.898;8.202;2023-04-25T17:15:28;1.77;;;1.13;;
14939;SDS011;11825;51.898;8.202;2023-04-25T17:20:34;3.50;;;1.60;;
14939;SDS011;11825;51.898;8.202;2023-04-25T17:25:36;5.93;;;1.73;;
14939;SDS011;11825;51.898;8.202;2023-04-25T17:30:38;5.57;;;1.30;;
14939;SDS011;11825;51.898;8.202;2023-04-25T17:35:42;2.50;;;1.70;;
14939;SDS011;11825;51.898;8.202;2023-04-25T17:40:45;2.57;;;1.33;;
14939;SDS011;11825;51.898;8.202;2023-04-25T17:45:47;4.50;;;1.60;;
14939;SDS011;11825;51.898;8.202;2023-04-25T17:50:49;3.47;;;1.07;;
14939;SDS011;11825;51.898;8.202;2023-04-25T17:55:51;1.63;;;1.00;;
14939;SDS011;11825;51.898;8.202;2023-04-25T18:00:53;2.87;;;1.60;;
14939;SDS011;11825;51.898;8.202;2023-04-25T18:05:56;4.17;;;1.80;;
14939;SDS011;11825;51.898;8.202;2023-04-25T18:10:58;6.13;;;2.37;;
14939;SDS011;11825;51.898;8.202;2023-04-25T18:16:00;3.47;;;1.60;;
14939;SDS011;11825;51.898;8.202;2023-04-25T18:21:02;7.20;;;1.77;;
14939;SDS011;11825;51.898;8.202;2023-04-25T18:26:07;2.90;;;1.20;;
14939;SDS011;11825;51.898;8.202;2023-04-25T18:31:09;1.77;;;1.43;;
14939;SDS011;11825;51.898;8.202;2023-04-25T18:36:12;1.97;;;1.37;;
14939;SDS011;11825;51.898;8.202;2023-04-25T18:41:14;3.63;;;1.63;;
14939;SDS011;11825;51.898;8.202;2023-04-25T18:46:21;2.77;;;1.20;;
14939;SDS011;11825;51.898;8.202;2023-04-25T18:51:23;6.43;;;1.77;;
14939;SDS011;11825;51.898;8.202;2023-04-25T18:56:30;5.77;;;1.77;;
14939;SDS011;11825;51.898;8.202;2023-04-25T19:01:32;8.73;;;1.93;;
14939;SDS011;11825;51.898;8.202;2023-04-25T19:06:35;3.10;;;1.43;;
14939;SDS011;11825;51.898;8.202;2023-04-25T19:11:36;5.50;;;2.53;;
14939;SDS011;11825;51.898;8.202;2023-04-25T19:16:39;3.30;;;2.13;;
14939;SDS011;11825;51.898;8.202;2023-04-25T19:21:41;13.33;;;8.20;;
14939;SDS011;11825;51.898;8.202;2023-04-25T19:26:44;5.00;;;2.10;;
14939;SDS011;11825;51.898;8.202;2023-04-25T19:31:49;4.50;;;1.93;;
14939;SDS011;11825;51.898;8.202;2023-04-25T19:36:51;3.73;;;1.70;;
14939;SDS011;11825;51.898;8.202;2023-04-25T19:41:54;5.93;;;1.90;;
14939;SDS011;11825;51.898;8.202;2023-04-25T19:46:57;6.70;;;2.97;;
14939;SDS011;11825;51.898;8.202;2023-04-25T19:52:00;5.70;;;2.57;;
14939;SDS011;11825;51.898;8.202;2023-04-25T19:57:02;2.93;;;1.50;;
14939;SDS011;11825;51.898;8.202;2023-04-25T20:02:05;5.43;;;2.50;;
14939;SDS011;11825;51.898;8.202;2023-04-25T20:07:09;2.93;;;2.27;;
14939;SDS011;11825;51.898;8.202;2023-04-25T20:12:11;4.97;;;2.87;;
14939;SDS011;11825;51.898;8.202;2023-04-25T20:17:13;7.57;;;2.43;;
14939;SDS011;11825;51.898;8.202;2023-04-25T20:22:17;7.87;;;2.47;;
14939;SDS011;11825;51.898;8.202;2023-04-25T20:27:19;5.97;;;2.27;;
14939;SDS011;11825;51.898;8.202;2023-04-25T20:32:21;4.23;;;2.03;;
14939;SDS011;11825;51.898;8.202;2023-04-25T20:37:24;4.27;;;2.30;;
14939;SDS011;11825;51.898;8.202;2023-04-25T20:42:25;6.40;;;2.20;;
14939;SDS011;11825;51.898;8.202;2023-04-25T20:47:27;9.37;;;3.30;;
14939;SDS011;11825;51.898;8.202;2023-04-25T20:52:29;6.67;;;3.10;;
14939;SDS011;11825;51.898;8.202;2023-04-25T20:57:32;4.33;;;2.40;;
14939;SDS011;11825;51.898;8.202;2023-04-25T21:02:34;3.93;;;2.07;;
14939;SDS011;11825;51.898;8.202;2023-04-25T21:07:36;4.17;;;2.57;;
14939;SDS011;11825;51.898;8.202;2023-04-25T21:12:39;5.67;;;2.90;;
14939;SDS011;11825;51.898;8.202;2023-04-25T21:17:41;7.00;;;3.07;;
14939;SDS011;11825;51.898;8.202;2023-04-25T21:22:43;5.80;;;2.13;;
14939;SDS011;11825;51.898;8.202;2023-04-25T21:27:54;4.13;;;2.57;;
14939;SDS011;11825;51.898;8.202;2023-04-25T21:32:56;5.50;;;2.57;;
14939;SDS011;11825;51.898;8.202;2023-04-25T21:37:58;3.03;;;1.97;;
14939;SDS011;11825;51.898;8.202;2023-04-25T21:43:01;8.10;;;2.40;;
14939;SDS011;11825;51.898;8.202;2023-04-25T21:48:03;3.13;;;1.90;;
14939;SDS011;11825;51.898;8.202;2023-04-25T21:53:04;3.53;;;2.33;;
14939;SDS011;11825;51.898;8.202;2023-04-25T21:58:07;3.43;;;1.97;;
14939;SDS011;11825;51.898;8.202;2023-04-25T22:03:09;3.43;;;2.00;;
14939;SDS011;11825;51.898;8.202;2023-04-25T22:08:11;5.67;;;2.60;;
14939;SDS011;11825;51.898;8.202;2023-04-25T22:13:13;6.53;;;2.20;;
14939;SDS011;11825;51.898;8.202;2023-04-25T22:18:16;10.80;;;2.67;;
14939;SDS011;11825;51.898;8.202;2023-04-25T22:23:19;5.93;;;4.20;;
14939;SDS011;11825;51.898;8.202;2023-04-25T22:28:22;3.40;;;1.80;;
14939;SDS011;11825;51.898;8.202;2023-04-25T22:33:24;4.07;;;2.33;;
14939;SDS011;11825;51.898;8.202;2023-04-25T22:38:26;4.90;;;2.50;;
14939;SDS011;11825;51.898;8.202;2023-04-25T22:43:28;3.53;;;2.40;;
14939;SDS011;11825;51.898;8.202;2023-04-25T22:48:30;4.10;;;2.37;;
14939;SDS011;11825;51.898;8.202;2023-04-25T22:53:32;4.63;;;2.47;;
14939;SDS011;11825;51.898;8.202;2023-04-25T22:58:37;4.17;;;2.13;;
14939;SDS011;11825;51.898;8.202;2023-04-25T23:03:39;3.77;;;1.77;;
14939;SDS011;11825;51.898;8.202;2023-04-25T23:08:42;4.17;;;2.37;;
14939;SDS011;11825;51.898;8.202;2023-04-25T23:13:44;9.97;;;5.03;;
14939;SDS011;11825;51.898;8.202;2023-04-25T23:18:46;5.40;;;2.53;;
14939;SDS011;11825;51.898;8.202;2023-04-25T23:23:48;5.03;;;2.27;;
14939;SDS011;11825;51.898;8.202;2023-04-25T23:28:50;5.87;;;2.57;;
14939;SDS011;11825;51.898;8.202;2023-04-25T23:40:27;8.73;;;3.53;;
14939;SDS011;11825;51.898;8.202;2023-04-25T23:57:17;6.17;;;2.40;;
